KMFR

Rogue Valley International - Medford Airport

Medford, Oregon, USA
METAR KMFR 271153Z AUTO 05003KT 10SM CLR 06/05 A3020 RMK AO2 SLP225 T00610050 10139 20061 52006
Observed Flight Rules
May-27 @ 11:53 UTC (11 minutes ago) Visual Flight Rules
Wind Visibility Clouds
50° at 3 knots 10 miles
  • Clear skies
Temperatures Readings
Current 6°C / 43°F
Dewpoint 5°C / 41°F
Humidity 93%
Altimeter 30.2" Hg
Pressure 1022.5 hPa
Elevation 396
METAR KMFR 271153Z AUTO 05003KT 10SM CLR 06/05 A3020 RMK AO2 SLP225 T00610050 10139 20061 52006
Observed Flight Rules
May-27 @ 11:53 UTC
(11 minutes ago)
VFR
Wind Visibility
50° at 3 knots 10 miles
Clouds
  • Clear skies
Temperature Dewpoint
6°C / 43°F 5°C / 41°F
Humidity Altimeter Pressure
93% 30.2" Hg 1022.5 hPa